Time;durP1;ratioP1;P1;durP2;ratioP2;P2;SDS_P1;SDS_P2;PMS_P1;PMS_P2;Temp;Humidity;BMP_temperature;BMP_pressure;BME280_temperature;BME280_humidity;BME280_pressure;Samples;Min_cycle;Max_cycle;Signal;HPM_P1;HPM_P2
2022/12/21 00:02:15;;;;;;;;;65.25;50.25;;;;;5.31;54.44;98988.59;6286665;27;97631;-63
2022/12/21 00:05:20;;;;;;;;;62.00;48.00;;;;;5.26;54.51;98989.16;6278740;27;96622;-62
2022/12/21 00:08:23;;;;;;;;;63.50;48.25;;;;;5.18;54.37;98973.22;6287083;27;96482;-62
2022/12/21 00:11:28;;;;;;;;;61.40;47.40;;;;;5.11;54.65;98962.44;6288160;27;96195;-62
2022/12/21 00:14:32;;;;;;;;;63.00;49.20;;;;;5.15;54.54;98966.41;6288798;27;96536;-63
2022/12/21 00:17:35;;;;;;;;;61.60;48.00;;;;;5.13;54.58;98954.25;6285708;27;96289;-62
2022/12/21 00:20:57;;;;;;;;;59.50;47.50;;;;;5.07;54.80;98945.13;6288178;27;97590;-63
2022/12/21 00:24:00;;;;;;;;;66.40;51.00;;;;;5.08;54.43;98951.31;6286769;27;96993;-62
2022/12/21 00:27:04;;;;;;;;;62.00;47.00;;;;;5.14;54.40;98966.56;6279810;27;96301;-62
2022/12/21 00:30:09;;;;;;;;;61.00;46.20;;;;;5.13;54.61;98965.75;6302603;27;96395;-63
2022/12/21 00:33:12;;;;;;;;;60.00;47.00;;;;;5.18;54.20;98952.66;6287472;27;97181;-62
2022/12/21 00:36:19;;;;;;;;;61.00;48.00;;;;;5.20;54.22;98953.31;6295093;27;96414;-62
2022/12/21 00:39:22;;;;;;;;;61.00;48.50;;;;;5.20;53.92;98958.66;6277992;27;96533;-63
2022/12/21 00:42:26;;;;;;;;;65.75;49.75;;;;;5.19;53.72;98948.13;6288029;27;96266;-62
2022/12/21 00:45:29;;;;;;;;;61.00;48.00;;;;;5.16;53.99;98957.38;6303450;27;96194;-62
2022/12/21 00:48:34;;;;;;;;;62.80;48.00;;;;;5.18;53.65;98960.66;6283759;27;96248;-62
2022/12/21 00:51:39;;;;;;;;;59.80;46.00;;;;;5.16;53.87;98962.72;6265895;27;97456;-63
2022/12/21 00:54:42;;;;;;;;;57.50;44.00;;;;;5.18;53.77;98965.22;6283494;27;97143;-62
2022/12/21 00:57:45;;;;;;;;;60.40;46.00;;;;;5.22;53.77;98964.66;6287474;27;96445;-63
2022/12/21 01:00:48;;;;;;;;;57.00;45.00;;;;;5.26;53.97;98966.94;6285264;27;96207;-63
2022/12/21 01:03:53;;;;;;;;;57.40;43.40;;;;;5.30;53.71;98957.53;6287707;27;96311;-63
2022/12/21 01:06:58;;;;;;;;;55.20;44.00;;;;;5.31;53.53;98952.00;6286831;27;96205;-62
2022/12/21 01:10:01;;;;;;;;;56.50;44.50;;;;;5.33;53.62;98952.63;6283636;27;97029;-63
2022/12/21 01:13:04;;;;;;;;;55.50;44.00;;;;;5.36;53.55;98949.59;6287765;27;97379;-63
2022/12/21 01:16:12;;;;;;;;;61.00;46.00;;;;;5.42;53.60;98946.19;6275897;27;96774;-63
2022/12/21 01:19:15;;;;;;;;;59.60;46.00;;;;;5.45;53.68;98936.94;6282851;27;96454;-64
2022/12/21 01:22:20;;;;;;;;;60.60;47.60;;;;;5.31;53.46;98914.59;6268786;27;96600;-62
2022/12/21 01:25:24;;;;;;;;;59.60;45.80;;;;;5.43;53.41;98925.59;6285064;27;97003;-63
2022/12/21 01:28:27;;;;;;;;;63.40;47.00;;;;;5.46;53.57;98931.44;6279474;27;96277;-63
2022/12/21 01:31:31;;;;;;;;;59.00;46.00;;;;;5.48;53.30;98921.34;6277299;27;96319;-62
2022/12/21 01:34:34;;;;;;;;;56.75;46.00;;;;;5.49;53.48;98922.19;6288481;27;97690;-63
2022/12/21 01:37:39;;;;;;;;;58.00;44.00;;;;;5.54;53.50;98914.44;6286918;27;96316;-63
2022/12/21 01:40:43;;;;;;;;;58.00;44.50;;;;;5.51;53.30;98893.44;6270417;27;96782;-62
2022/12/21 01:43:49;;;;;;;;;58.25;44.00;;;;;5.56;53.44;98891.84;6287044;27;96601;-62
2022/12/21 01:46:53;;;;;;;;;57.00;43.60;;;;;5.61;53.27;98885.94;6284777;27;96758;-64
2022/12/21 01:50:01;;;;;;;;;59.40;47.00;;;;;5.66;53.41;98886.19;6268694;27;97709;-64
2022/12/21 01:53:10;;;;;;;;;60.75;45.00;;;;;5.74;53.20;98890.56;6283103;27;97560;-64
2022/12/21 01:56:20;;;;;;;;;58.80;45.80;;;;;5.79;53.21;98896.19;6281973;27;96479;-61
2022/12/21 01:59:30;;;;;;;;;56.50;44.50;;;;;5.73;53.10;98873.69;6293641;27;96418;-63
2022/12/21 02:02:37;;;;;;;;;56.40;44.40;;;;;5.89;52.90;98892.19;6281561;27;96660;-63
2022/12/21 02:05:50;;;;;;;;;60.50;47.00;;;;;5.88;52.91;98881.69;6263631;27;97327;-63
2022/12/21 02:08:55;;;;;;;;;57.60;46.00;;;;;5.88;52.88;98874.50;6279767;27;96482;-63
2022/12/21 02:12:02;;;;;;;;;57.50;46.00;;;;;5.83;52.99;98866.19;6284796;27;97050;-63
2022/12/21 02:15:06;;;;;;;;;56.40;43.40;;;;;5.87;52.70;98872.00;6273708;27;96638;-62
2022/12/21 02:18:20;;;;;;;;;56.40;45.00;;;;;5.86;52.74;98851.59;6278980;27;96247;-63
2022/12/21 02:21:26;;;;;;;;;58.00;45.75;;;;;5.84;52.61;98862.47;6284856;27;96346;-63
2022/12/21 02:24:55;;;;;;;;;61.00;47.00;;;;;5.83;52.62;98866.19;6274130;27;96408;-63
2022/12/21 02:28:35;;;;;;;;;57.00;44.25;;;;;5.89;52.56;98876.16;6278439;27;97211;-63
2022/12/21 02:31:49;;;;;;;;;57.00;44.00;;;;;5.93;52.70;98879.25;6256594;27;96550;-63
2022/12/21 02:35:06;;;;;;;;;58.60;46.00;;;;;5.96;52.64;98849.47;6281529;27;97507;-64
2022/12/21 02:38:24;;;;;;;;;60.00;46.00;;;;;5.97;52.61;98867.97;6291927;27;96288;-63
2022/12/21 02:41:46;;;;;;;;;58.80;44.20;;;;;5.99;52.83;98873.97;6275848;27;96377;-63
2022/12/21 02:44:55;;;;;;;;;51.00;42.00;;;;;6.07;52.38;98871.16;6284818;27;97732;-63
2022/12/21 02:48:09;;;;;;;;;59.00;45.00;;;;;6.11;52.10;98870.78;6285658;27;96744;-63
2022/12/21 02:51:20;;;;;;;;;55.60;44.00;;;;;5.95;52.20;98839.78;6269053;27;96297;-62
2022/12/21 02:54:24;;;;;;;;;56.40;44.00;;;;;6.01;52.03;98850.50;6282920;27;96331;-62
2022/12/21 02:57:33;;;;;;;;;55.67;42.67;;;;;6.05;51.75;98857.16;6302129;27;96400;-63
2022/12/21 03:00:41;;;;;;;;;56.50;44.25;;;;;6.11;51.74;98868.09;6289170;27;96427;-63
2022/12/21 03:04:22;;;;;;;;;59.75;45.75;;;;;6.10;51.91;98853.91;6275753;27;96473;-63
2022/12/21 03:07:51;;;;;;;;;56.40;44.80;;;;;6.09;51.77;98842.34;6288403;27;98223;-63
2022/12/21 03:11:00;;;;;;;;;57.40;44.80;;;;;6.02;51.72;98849.50;6305010;27;96246;-62
2022/12/21 03:14:10;;;;;;;;;56.00;45.40;;;;;6.16;51.96;98871.03;6306080;27;96262;-63
2022/12/21 03:17:22;;;;;;;;;56.00;45.50;;;;;6.21;51.90;98861.38;6305791;27;96400;-63
2022/12/21 03:20:34;;;;;;;;;57.40;45.00;;;;;6.21;51.81;98858.69;6305724;27;96678;-62
2022/12/21 03:23:42;;;;;;;;;60.00;46.00;;;;;6.23;51.86;98866.53;6305959;27;96755;-62
2022/12/21 03:26:51;;;;;;;;;54.80;44.20;;;;;6.25;51.80;98856.47;6290498;27;96565;-63
2022/12/21 03:30:00;;;;;;;;;59.00;46.00;;;;;6.25;51.95;98861.84;6289322;27;96366;-63
2022/12/21 03:33:09;;;;;;;;;56.00;44.00;;;;;6.27;51.71;98875.84;6281281;27;96907;-63
2022/12/21 03:36:18;;;;;;;;;54.40;44.40;;;;;6.27;51.53;98878.50;6282612;27;96884;-63
2022/12/21 03:39:24;;;;;;;;;59.80;46.00;;;;;6.05;51.60;98867.84;6289707;27;96374;-63
2022/12/21 03:42:33;;;;;;;;;56.60;44.00;;;;;6.12;51.71;98877.78;6289681;27;96425;-62
2022/12/21 03:45:43;;;;;;;;;57.00;44.80;;;;;6.04;51.66;98886.78;6290019;27;96336;-63
2022/12/21 03:48:53;;;;;;;;;56.40;45.40;;;;;5.99;51.67;98884.69;6289405;27;97415;-63
2022/12/21 03:52:04;;;;;;;;;58.50;45.00;;;;;5.92;51.64;98881.09;6276368;27;96800;-63
2022/12/21 03:55:13;;;;;;;;;61.40;46.40;;;;;5.88;51.89;98882.50;6277361;27;96462;-64
2022/12/21 03:58:17;;;;;;;;;54.33;44.00;;;;;5.82;51.85;98877.88;6287992;27;96296;-63
2022/12/21 04:01:32;;;;;;;;;58.80;46.00;;;;;5.75;51.87;98874.34;6282394;27;96943;-63
2022/12/21 04:04:41;;;;;;;;;53.25;44.00;;;;;5.68;52.27;98862.72;6285469;27;96470;-63
2022/12/21 04:07:48;;;;;;;;;56.00;44.80;;;;;5.56;52.33;98859.75;6287238;27;97261;-64
2022/12/21 04:10:52;;;;;;;;;58.00;45.40;;;;;5.50;51.99;98863.19;6286063;27;98344;-62
2022/12/21 04:13:54;;;;;;;;;58.00;44.40;;;;;5.46;52.12;98869.94;6286570;27;96301;-63
2022/12/21 04:16:58;;;;;;;;;59.40;46.40;;;;;5.40;52.16;98877.88;6288021;27;96365;-63
2022/12/21 04:20:02;;;;;;;;;54.80;42.80;;;;;5.40;52.67;98885.88;6286819;27;96538;-63
2022/12/21 04:29:49;;;;;;;;;58.00;45.00;;;;;5.33;53.27;98858.25;6275898;27;96779;-63
2022/12/21 04:32:52;;;;;;;;;57.00;44.40;;;;;5.30;53.05;98866.66;6281839;27;96175;-63
2022/12/21 04:39:18;;;;;;;;;59.50;46.25;;;;;5.12;53.17;98854.53;6272610;27;96335;-63
2022/12/21 04:42:22;;;;;;;;;55.60;43.00;;;;;5.14;53.62;98863.19;6288008;27;96720;-63
2022/12/21 04:45:26;;;;;;;;;53.20;42.80;;;;;5.16;53.55;98871.84;6286477;27;96709;-63
2022/12/21 04:48:30;;;;;;;;;56.00;44.00;;;;;5.13;53.56;98863.38;6286877;27;96147;-63
2022/12/21 04:51:33;;;;;;;;;57.50;45.00;;;;;5.19;53.32;98865.28;6286500;27;97422;-62
2022/12/21 04:54:38;;;;;;;;;56.00;45.50;;;;;5.16;53.83;98873.69;6288259;27;96771;-63
2022/12/21 04:57:41;;;;;;;;;54.75;44.00;;;;;5.10;53.52;98872.59;6273868;27;96290;-63
2022/12/21 05:00:45;;;;;;;;;54.25;41.75;;;;;5.04;53.66;98861.81;6282602;27;97528;-62
2022/12/21 05:03:49;;;;;;;;;55.00;43.00;;;;;5.08;53.81;98877.28;6281141;27;96676;-63
2022/12/21 05:06:52;;;;;;;;;56.00;44.00;;;;;5.10;54.32;98875.28;6290901;27;96260;-63
2022/12/21 05:09:57;;;;;;;;;55.00;43.00;;;;;5.09;54.11;98886.13;6287299;27;96383;-63
2022/12/21 05:13:00;;;;;;;;;55.00;44.00;;;;;5.03;54.44;98887.72;6286926;27;96354;-63
2022/12/21 05:16:04;;;;;;;;;54.50;43.00;;;;;5.04;54.65;98884.03;6280360;27;97157;-63
2022/12/21 05:19:07;;;;;;;;;53.20;42.00;;;;;5.04;54.79;98888.53;6285575;27;96143;-63
2022/12/21 05:22:11;;;;;;;;;52.00;41.50;;;;;4.91;54.49;98880.34;6286392;27;96329;-63
2022/12/21 05:25:16;;;;;;;;;56.40;44.00;;;;;4.87;54.93;98895.94;6286067;27;96389;-63
2022/12/21 05:28:19;;;;;;;;;55.40;42.60;;;;;4.86;54.87;98891.59;6287408;27;96600;-63
2022/12/21 05:31:22;;;;;;;;;54.00;43.20;;;;;4.78;54.74;98884.53;6285708;27;98683;-63
2022/12/21 05:34:26;;;;;;;;;53.00;42.00;;;;;4.80;54.57;98879.81;6286628;27;96722;-63
2022/12/21 05:37:29;;;;;;;;;56.20;44.00;;;;;4.85;54.74;98883.75;6280513;27;97077;-63
2022/12/21 05:40:34;;;;;;;;;53.00;42.00;;;;;4.80;54.90;98887.81;6276360;27;96858;-63
2022/12/21 05:43:37;;;;;;;;;52.60;42.20;;;;;4.79;54.89;98885.31;6285097;27;96358;-63
2022/12/21 05:46:40;;;;;;;;;55.00;44.00;;;;;4.77;54.77;98874.84;6285545;27;96349;-63
2022/12/21 05:49:44;;;;;;;;;53.60;44.00;;;;;4.79;55.08;98880.00;6285131;27;97485;-63
2022/12/21 05:52:47;;;;;;;;;51.50;40.00;;;;;4.82;54.76;98884.16;6283610;27;97031;-63
2022/12/21 05:55:52;;;;;;;;;53.00;43.00;;;;;4.83;54.86;98878.63;6281507;27;96599;-64
2022/12/21 05:58:55;;;;;;;;;55.00;44.00;;;;;4.80;54.78;98862.97;6271881;27;96530;-64
2022/12/21 06:01:58;;;;;;;;;56.00;44.00;;;;;4.92;54.71;98882.03;6270118;27;97070;-63
2022/12/21 06:05:03;;;;;;;;;54.00;41.00;;;;;4.98;54.82;98878.63;6268623;27;96363;-64
2022/12/21 06:08:07;;;;;;;;;52.00;43.00;;;;;4.99;54.73;98874.91;6280407;27;96783;-64
2022/12/21 06:11:14;;;;;;;;;55.00;42.60;;;;;5.00;54.80;98877.41;6278412;27;96394;-62
2022/12/21 06:14:18;;;;;;;;;50.80;40.80;;;;;4.98;55.07;98873.28;6277494;27;96427;-62
2022/12/21 06:17:21;;;;;;;;;53.00;42.00;;;;;5.07;54.79;98885.50;6276561;27;96417;-62
2022/12/21 06:20:25;;;;;;;;;50.25;40.25;;;;;5.01;55.25;98878.22;6300561;27;96446;-63
2022/12/21 06:23:29;;;;;;;;;50.60;41.00;;;;;5.13;54.90;98874.88;6280345;27;96472;-62
2022/12/21 06:26:33;;;;;;;;;49.80;40.00;;;;;5.15;54.68;98869.34;6285800;27;96854;-63
2022/12/21 06:29:37;;;;;;;;;51.00;40.00;;;;;5.17;54.83;98873.53;6285310;27;96991;-63
2022/12/21 06:32:40;;;;;;;;;51.20;40.00;;;;;5.21;54.74;98877.47;6285994;27;96308;-63
2022/12/21 06:35:44;;;;;;;;;50.20;40.00;;;;;5.26;54.51;98878.75;6286701;27;96839;-63
2022/12/21 06:38:47;;;;;;;;;51.00;40.00;;;;;5.24;54.47;98885.09;6291158;27;96257;-63
2022/12/21 06:41:52;;;;;;;;;50.40;39.60;;;;;5.30;54.29;98885.38;6290431;27;97528;-63
2022/12/21 06:44:55;;;;;;;;;50.80;40.00;;;;;5.30;54.35;98880.84;6291048;27;96358;-63
2022/12/21 06:47:59;;;;;;;;;51.00;41.00;;;;;5.40;54.06;98872.53;6297690;27;96608;-63
2022/12/21 06:51:04;;;;;;;;;53.00;42.60;;;;;5.44;53.74;98869.28;6292381;27;96445;-63
2022/12/21 06:54:11;;;;;;;;;51.20;41.00;;;;;5.45;53.88;98854.06;6297741;27;96390;-63
2022/12/21 06:57:16;;;;;;;;;52.00;43.00;;;;;5.61;53.60;98865.38;6290663;27;96226;-63
2022/12/21 07:00:20;;;;;;;;;48.00;38.00;;;;;5.74;53.62;98853.94;6290458;27;96872;-63
2022/12/21 07:03:24;;;;;;;;;53.00;41.00;;;;;5.83;53.02;98846.63;6291804;27;98300;-63
2022/12/21 07:06:29;;;;;;;;;49.60;39.60;;;;;5.92;53.00;98853.50;6279084;27;97758;-63
2022/12/21 07:09:32;;;;;;;;;51.80;40.20;;;;;6.07;52.48;98854.25;6291133;27;97035;-63
2022/12/21 07:12:37;;;;;;;;;49.80;39.20;;;;;6.18;52.23;98840.34;6289804;27;96544;-63
2022/12/21 07:15:40;;;;;;;;;47.00;38.60;;;;;6.29;51.92;98855.06;6293821;27;97211;-63
2022/12/21 07:18:44;;;;;;;;;50.00;40.75;;;;;6.36;51.71;98842.53;6294451;27;96642;-63
2022/12/21 07:21:47;;;;;;;;;47.00;39.00;;;;;6.85;50.90;98867.34;6296754;27;96835;-62
2022/12/21 07:24:51;;;;;;;;;49.20;39.00;;;;;7.24;49.52;98849.78;6287652;27;96421;-62
2022/12/21 07:27:57;;;;;;;;;46.60;39.00;;;;;7.72;48.53;98837.13;6285226;27;96487;-63
2022/12/21 07:31:03;;;;;;;;;45.00;37.00;;;;;8.05;47.52;98855.94;6287359;27;96893;-63
2022/12/21 07:34:07;;;;;;;;;44.60;35.20;;;;;8.11;47.35;98847.06;6293179;27;96198;-63
2022/12/21 07:37:10;;;;;;;;;49.00;38.00;;;;;8.21;46.91;98834.84;6294059;27;97095;-63
2022/12/21 07:40:15;;;;;;;;;46.00;37.75;;;;;8.16;46.71;98833.84;6293371;27;96366;-63
2022/12/21 07:43:20;;;;;;;;;47.75;38.75;;;;;8.16;46.65;98839.22;6289607;27;96583;-63
2022/12/21 07:46:38;;;;;;;;;48.00;38.40;;;;;8.72;45.90;98828.78;6288164;27;97013;-63
2022/12/21 07:49:44;;;;;;;;;46.00;36.60;;;;;9.96;43.63;98816.56;6282734;27;96424;-64
2022/12/21 07:52:48;;;;;;;;;45.00;36.00;;;;;11.40;40.77;98813.34;6287307;27;96502;-64
2022/12/21 07:55:51;;;;;;;;;48.20;38.40;;;;;12.18;38.96;98812.38;6288523;27;96655;-64
2022/12/21 07:58:56;;;;;;;;;48.75;39.00;;;;;12.33;38.11;98810.88;6288577;27;97123;-64
2022/12/21 08:01:59;;;;;;;;;46.80;38.60;;;;;11.82;38.92;98800.72;6288814;27;96917;-64
2022/12/21 08:05:02;;;;;;;;;49.20;39.00;;;;;11.16;39.83;98808.88;6288606;27;96109;-64
2022/12/21 08:08:06;;;;;;;;;43.20;36.00;;;;;10.57;40.87;98810.41;6287998;27;97002;-63
2022/12/21 08:11:12;;;;;;;;;47.80;37.40;;;;;10.11;41.95;98807.31;6287559;27;96119;-63
2022/12/21 08:14:17;;;;;;;;;45.00;36.40;;;;;9.76;42.76;98806.97;6283593;27;96991;-63
2022/12/21 08:17:20;;;;;;;;;48.50;39.00;;;;;9.37;43.60;98802.66;6282472;27;96883;-63
2022/12/21 08:20:25;;;;;;;;;47.00;37.50;;;;;9.13;44.20;98809.63;6286369;27;97443;-63
2022/12/21 08:23:29;;;;;;;;;43.00;35.75;;;;;8.91;44.76;98806.41;6288604;27;96450;-63
2022/12/21 08:26:32;;;;;;;;;46.60;36.60;;;;;8.74;45.29;98799.03;6283085;27;96358;-63
2022/12/21 08:29:37;;;;;;;;;50.40;40.00;;;;;8.56;45.92;98787.09;6287923;27;96815;-63
2022/12/21 08:32:41;;;;;;;;;50.00;37.75;;;;;8.44;46.30;98775.34;6281806;27;97578;-63
2022/12/21 08:35:44;;;;;;;;;44.20;36.00;;;;;8.41;46.73;98793.72;6303538;27;96446;-64
2022/12/21 08:38:48;;;;;;;;;45.80;35.80;;;;;8.37;46.93;98789.81;6286562;27;96404;-63
2022/12/21 08:42:13;;;;;;;;;45.20;36.80;;;;;8.31;47.03;98793.34;6282369;27;96487;-63
2022/12/21 08:45:17;;;;;;;;;49.00;37.75;;;;;8.31;47.12;98798.72;6298042;27;96181;-64
2022/12/21 08:48:21;;;;;;;;;44.80;36.60;;;;;8.30;47.31;98781.78;6288049;27;96214;-64
2022/12/21 08:51:31;;;;;;;;;45.00;36.50;;;;;8.30;47.29;98791.69;6288302;27;96312;-64
2022/12/21 08:54:35;;;;;;;;;46.50;35.75;;;;;8.30;47.08;98797.06;6286495;27;96852;-64
2022/12/21 08:57:39;;;;;;;;;49.00;37.00;;;;;8.26;47.19;98788.56;6287828;27;96206;-64
2022/12/21 09:00:44;;;;;;;;;46.40;38.00;;;;;8.37;47.06;98782.59;6284443;27;96461;-64
2022/12/21 09:03:47;;;;;;;;;49.50;36.00;;;;;8.36;46.90;98791.66;6285648;27;97131;-64
2022/12/21 09:06:51;;;;;;;;;51.50;39.25;;;;;8.40;46.93;98794.78;6287401;27;96254;-64
2022/12/21 09:09:54;;;;;;;;;49.20;38.80;;;;;8.31;46.90;98778.03;6287320;27;96513;-64
2022/12/21 09:12:58;;;;;;;;;52.00;41.20;;;;;8.34;46.90;98780.31;6287587;27;96460;-64
2022/12/21 09:16:03;;;;;;;;;49.60;40.00;;;;;8.22;47.05;98777.41;6287401;27;96190;-64
2022/12/21 09:19:06;;;;;;;;;50.00;40.00;;;;;8.13;47.08;98770.63;6288018;27;96179;-63
2022/12/21 09:22:10;;;;;;;;;50.50;40.50;;;;;8.04;47.53;98779.94;6294197;27;96299;-63
2022/12/21 09:25:13;;;;;;;;;53.60;43.00;;;;;8.04;47.55;98785.28;6281460;27;97071;-63
2022/12/21 09:28:16;;;;;;;;;52.00;41.25;;;;;7.90;47.93;98770.22;6287221;27;96850;-63
2022/12/21 09:31:22;;;;;;;;;51.40;41.00;;;;;7.83;48.28;98745.25;6296958;27;97036;-63
2022/12/21 09:34:27;;;;;;;;;53.00;41.75;;;;;7.83;48.42;98748.75;6286891;27;96274;-64
2022/12/21 09:37:31;;;;;;;;;51.40;41.40;;;;;7.91;48.29;98766.53;6285793;27;96297;-63
2022/12/21 09:40:41;;;;;;;;;50.00;40.00;;;;;7.84;48.54;98761.16;6287395;27;96568;-64
2022/12/21 09:43:53;;;;;;;;;54.00;41.00;;;;;7.74;48.53;98752.69;6287216;27;96234;-63
2022/12/21 09:47:01;;;;;;;;;50.75;41.00;;;;;7.68;48.66;98766.09;6278097;27;96196;-63
2022/12/21 09:50:11;;;;;;;;;56.80;45.80;;;;;7.65;48.97;98770.03;6281291;27;97170;-63
2022/12/21 09:53:21;;;;;;;;;61.00;46.00;;;;;7.57;48.98;98770.25;6257971;27;96814;-64
2022/12/21 09:56:26;;;;;;;;;59.60;46.00;;;;;7.34;49.21;98743.78;6283560;27;96803;-64
2022/12/21 09:59:31;;;;;;;;;61.00;48.00;;;;;7.38;49.55;98776.38;6285125;27;97446;-64
2022/12/21 10:03:04;;;;;;;;;61.50;46.50;;;;;7.37;49.71;98764.03;6284682;27;96359;-64
2022/12/21 10:06:34;;;;;;;;;65.00;49.00;;;;;7.43;49.80;98754.34;6285167;27;96230;-63
2022/12/21 10:09:57;;;;;;;;;62.20;48.00;;;;;7.59;49.68;98751.22;6289279;27;96513;-64
2022/12/21 10:13:08;;;;;;;;;63.80;50.00;;;;;7.67;49.71;98754.53;6287844;27;96693;-63
2022/12/21 10:16:23;;;;;;;;;62.40;48.00;;;;;7.85;49.43;98745.88;6280609;27;96501;-63
2022/12/21 10:19:59;;;;;;;;;62.75;50.00;;;;;7.98;49.39;98753.06;6286434;27;97007;-63
2022/12/21 10:23:11;;;;;;;;;63.20;48.40;;;;;7.94;49.26;98750.00;6272742;27;98945;-63
2022/12/21 10:26:17;;;;;;;;;66.20;48.80;;;;;7.99;49.54;98750.19;6286324;27;96553;-63
2022/12/21 10:29:28;;;;;;;;;62.50;48.00;;;;;7.89;49.39;98722.94;6280245;27;96561;-63
2022/12/21 10:32:35;;;;;;;;;62.25;48.00;;;;;8.11;49.42;98745.81;6284049;27;97392;-63
2022/12/21 10:35:41;;;;;;;;;61.50;48.50;;;;;8.10;49.43;98744.19;6283463;27;96834;-63
2022/12/21 10:38:45;;;;;;;;;62.50;48.00;;;;;8.13;49.38;98735.72;6284144;27;97105;-64
2022/12/21 10:41:53;;;;;;;;;59.00;47.00;;;;;8.24;49.34;98742.31;6284046;27;97182;-63
2022/12/21 10:44:59;;;;;;;;;61.00;48.00;;;;;8.24;49.26;98748.50;6282169;27;96510;-63
2022/12/21 10:48:03;;;;;;;;;58.50;46.00;;;;;8.23;49.32;98738.78;6282124;27;96654;-63
2022/12/21 10:51:17;;;;;;;;;58.80;46.40;;;;;8.24;49.06;98742.31;6298002;27;96499;-63
2022/12/21 10:54:27;;;;;;;;;63.60;47.00;;;;;8.32;49.19;98735.91;6283807;27;96410;-63
2022/12/21 10:57:33;;;;;;;;;57.25;44.25;;;;;8.25;49.40;98736.72;6283103;27;97330;-64
2022/12/21 11:00:38;;;;;;;;;56.00;45.40;;;;;8.17;49.65;98734.25;6282710;27;97025;-63
2022/12/21 11:03:42;;;;;;;;;58.60;45.00;;;;;8.09;49.76;98731.81;6284226;27;97192;-64
2022/12/21 11:07:02;;;;;;;;;60.40;48.00;;;;;8.11;49.82;98721.66;6286656;27;96351;-63
2022/12/21 11:10:28;;;;;;;;;63.40;50.00;;;;;8.15;49.94;98705.97;6289472;27;96162;-64
2022/12/21 11:13:58;;;;;;;;;61.60;46.00;;;;;8.06;50.15;98712.59;6295457;27;96980;-64
2022/12/21 11:17:20;;;;;;;;;61.20;46.20;;;;;8.00;50.38;98716.94;6285674;27;96429;-64
2022/12/21 11:20:25;;;;;;;;;61.25;47.75;;;;;7.84;50.88;98718.22;6287807;27;96303;-64
2022/12/21 11:23:31;;;;;;;;;64.60;48.00;;;;;7.77;51.23;98717.38;6278171;27;97109;-64
2022/12/21 11:26:41;;;;;;;;;62.40;49.40;;;;;7.80;51.28;98711.59;6289150;27;96351;-64
2022/12/21 11:29:49;;;;;;;;;61.00;48.00;;;;;7.92;51.22;98708.28;6289537;27;96063;-64
2022/12/21 11:32:55;;;;;;;;;61.75;47.50;;;;;7.83;51.60;98699.63;6289651;27;96301;-64
2022/12/21 11:36:11;;;;;;;;;61.00;48.00;;;;;7.84;51.72;98693.22;6286884;27;96880;-62
2022/12/21 11:39:16;;;;;;;;;62.40;48.80;;;;;7.90;51.68;98694.25;6289227;27;96424;-63
2022/12/21 11:42:22;;;;;;;;;61.20;47.00;;;;;7.97;51.40;98685.13;6289332;27;96617;-63
2022/12/21 11:45:35;;;;;;;;;62.00;48.00;;;;;8.00;51.34;98682.06;6287454;27;97029;-63
2022/12/21 11:48:48;;;;;;;;;62.00;49.00;;;;;8.05;51.50;98676.03;6283901;27;96579;-64
2022/12/21 11:52:07;;;;;;;;;62.00;48.00;;;;;8.00;51.67;98667.81;6286078;27;96511;-64
2022/12/21 11:55:21;;;;;;;;;62.00;48.00;;;;;8.01;51.69;98669.47;6285711;27;96606;-64
2022/12/21 11:58:39;;;;;;;;;63.00;48.00;;;;;8.06;51.73;98678.50;6290742;27;97124;-64
2022/12/21 12:01:54;;;;;;;;;63.75;49.50;;;;;8.19;51.57;98669.59;6301327;27;96975;-63
2022/12/21 12:05:12;;;;;;;;;63.75;49.50;;;;;8.21;51.32;98673.72;6286732;27;96905;-63
2022/12/21 12:08:35;;;;;;;;;62.20;48.80;;;;;8.26;51.46;98668.53;6288118;27;96679;-63
2022/12/21 12:11:53;;;;;;;;;63.00;49.00;;;;;8.33;51.37;98670.41;6283203;27;97030;-63
2022/12/21 12:15:15;;;;;;;;;63.40;50.00;;;;;8.22;51.68;98672.69;6288075;27;96322;-62
2022/12/21 12:18:36;;;;;;;;;63.40;50.80;;;;;8.33;51.45;98670.41;6288095;27;97270;-63
2022/12/21 12:21:56;;;;;;;;;66.00;51.75;;;;;8.41;51.30;98670.97;6289141;27;96947;-63
2022/12/21 12:25:15;;;;;;;;;64.25;50.75;;;;;8.46;51.29;98670.34;6288557;27;96680;-63
2022/12/21 12:28:37;;;;;;;;;66.00;51.00;;;;;8.50;51.13;98661.63;6287225;27;96260;-62
2022/12/21 12:31:57;;;;;;;;;64.00;49.00;;;;;8.61;50.90;98668.22;6288048;27;96476;-63
2022/12/21 12:35:20;;;;;;;;;60.40;45.00;;;;;8.73;50.71;98671.06;6286087;27;96861;-63
2022/12/21 12:38:32;;;;;;;;;65.60;49.60;;;;;8.75;50.59;98658.25;6284337;27;96885;-63
2022/12/21 12:41:42;;;;;;;;;66.00;49.00;;;;;8.72;50.55;98666.72;6285340;27;96358;-64
2022/12/21 12:45:00;;;;;;;;;62.60;48.00;;;;;8.74;50.74;98664.66;6288032;27;96974;-64
2022/12/21 12:48:18;;;;;;;;;61.60;47.80;;;;;8.67;50.55;98660.13;6289003;27;96443;-64
2022/12/21 12:51:27;;;;;;;;;61.75;49.00;;;;;8.70;50.82;98659.69;6291650;27;97324;-64
2022/12/21 12:54:43;;;;;;;;;64.60;49.00;;;;;8.71;50.75;98657.81;6280873;27;97335;-63
2022/12/21 12:57:56;;;;;;;;;63.00;49.00;;;;;8.63;51.00;98656.22;6282907;27;96545;-63
2022/12/21 13:01:07;;;;;;;;;63.20;49.60;;;;;8.68;51.03;98663.63;6287766;27;96285;-63
2022/12/21 13:04:31;;;;;;;;;64.25;50.00;;;;;8.67;50.97;98661.97;6286766;27;96474;-64
2022/12/21 13:07:43;;;;;;;;;62.75;49.75;;;;;8.70;50.82;98656.16;6281130;27;96534;-63
2022/12/21 13:10:53;;;;;;;;;64.00;50.00;;;;;8.69;50.93;98665.28;6287690;27;96260;-63
2022/12/21 13:14:04;;;;;;;;;65.50;50.50;;;;;8.66;51.07;98669.22;6287582;27;96910;-64
2022/12/21 13:17:17;;;;;;;;;62.00;49.00;;;;;8.59;51.18;98673.00;6288652;27;96919;-64
2022/12/21 13:20:24;;;;;;;;;65.50;50.75;;;;;8.49;51.56;98683.38;6287347;27;96139;-64
2022/12/21 13:23:38;;;;;;;;;64.25;50.25;;;;;8.42;51.78;98686.06;6286372;27;96396;-64
2022/12/21 13:26:46;;;;;;;;;66.80;51.40;;;;;8.39;51.60;98691.88;6287017;27;96429;-64
2022/12/21 13:29:57;;;;;;;;;65.00;50.00;;;;;8.32;51.68;98682.19;6287066;27;96324;-63
2022/12/21 13:33:04;;;;;;;;;66.00;50.60;;;;;8.39;51.90;98694.56;6283679;27;97601;-63
2022/12/21 13:36:12;;;;;;;;;67.20;50.80;;;;;8.39;51.99;98689.19;6285268;27;96406;-63
2022/12/21 13:39:23;;;;;;;;;66.40;51.00;;;;;8.42;51.97;98685.25;6278253;27;97613;-62
2022/12/21 13:42:33;;;;;;;;;66.00;51.00;;;;;8.37;52.27;98691.25;6287492;27;96438;-63
2022/12/21 13:45:42;;;;;;;;;65.60;51.00;;;;;8.39;52.36;98689.19;6279967;27;96356;-63
2022/12/21 13:48:51;;;;;;;;;65.75;51.00;;;;;8.35;52.31;98687.97;6285076;27;96980;-63
2022/12/21 13:51:57;;;;;;;;;63.00;51.00;;;;;8.36;52.51;98696.81;6294247;27;96619;-62
2022/12/21 13:55:16;;;;;;;;;63.75;50.00;;;;;8.33;52.46;98689.22;6285273;27;96567;-62
2022/12/21 13:58:36;;;;;;;;;67.00;50.00;;;;;8.35;52.66;98685.28;6299424;27;96440;-63
2022/12/21 14:01:45;;;;;;;;;65.50;50.25;;;;;8.18;52.43;98665.25;6286982;27;96268;-62
2022/12/21 14:04:55;;;;;;;;;67.00;52.00;;;;;8.34;52.74;98677.44;6286342;27;96396;-63
2022/12/21 14:08:31;;;;;;;;;63.25;50.75;;;;;8.33;52.69;98667.72;6299380;27;96426;-63
2022/12/21 14:12:03;;;;;;;;;65.00;51.00;;;;;8.27;53.16;98672.03;6285366;27;96584;-63
2022/12/21 14:15:44;;;;;;;;;66.00;50.00;;;;;8.16;53.09;98661.97;6281033;27;96394;-63
2022/12/21 14:18:55;;;;;;;;;64.40;50.00;;;;;8.19;53.52;98662.38;6283053;27;96589;-62
2022/12/21 14:22:15;;;;;;;;;63.60;50.00;;;;;8.21;53.53;98660.28;6290178;27;96964;-63
2022/12/21 14:25:22;;;;;;;;;67.00;51.20;;;;;8.12;53.91;98660.72;6283503;27;97137;-63
2022/12/21 14:28:28;;;;;;;;;66.40;52.00;;;;;8.08;53.91;98654.13;6286220;27;97012;-62
2022/12/21 14:31:32;;;;;;;;;65.33;50.67;;;;;8.18;54.11;98663.41;6275623;27;96506;-63
2022/12/21 14:34:41;;;;;;;;;73.00;58.20;;;;;8.08;54.76;98672.94;6285408;27;96262;-63
2022/12/21 14:38:10;;;;;;;;;67.00;52.60;;;;;8.00;54.76;98657.88;6294863;27;96283;-63
2022/12/21 14:41:21;;;;;;;;;65.50;50.50;;;;;7.96;55.43;98669.25;6283244;27;96459;-62
2022/12/21 14:45:12;;;;;;;;;65.60;50.40;;;;;7.94;55.56;98684.75;6281658;27;96963;-62
2022/12/21 14:48:43;;;;;;;;;71.00;53.00;;;;;7.91;55.62;98685.16;6286227;27;97779;-63